Time;durP1;ratioP1;P1;durP2;ratioP2;P2;SDS_P1;SDS_P2;PMS_P1;PMS_P2;Temp;Humidity;BMP_temperature;BMP_pressure;BME280_temperature;BME280_humidity;BME280_pressure;Samples;Min_cycle;Max_cycle;Signal;HPM_P1;HPM_P2
2022/03/26 00:01:04;;;;;;;1.73;1.63;;;11.70;99.90;;;;;;5035878;28;20474;-71
2022/03/26 00:03:35;;;;;;;0.60;0.43;;;11.60;99.90;;;;;;5032917;28;20479;-72
2022/03/26 00:06:07;;;;;;;4.17;1.00;;;11.60;99.90;;;;;;5033762;28;20471;-71
2022/03/26 00:08:35;;;;;;;3.47;2.03;;;11.60;99.90;;;;;;5033116;28;20448;-72
2022/03/26 00:11:02;;;;;;;0.60;0.20;;;11.50;99.90;;;;;;5033492;28;20474;-72
2022/03/26 00:13:31;;;;;;;3.70;3.33;;;11.50;99.90;;;;;;5026488;28;20796;-72
2022/03/26 00:15:58;;;;;;;5.13;2.80;;;11.40;99.90;;;;;;5031439;28;21023;-73
2022/03/26 00:18:27;;;;;;;0.60;0.20;;;;;;;;;;5031872;28;20522;-73
2022/03/26 00:20:56;;;;;;;4.17;1.10;;;11.20;99.90;;;;;;5032433;28;20474;-72
2022/03/26 00:23:24;;;;;;;5.83;1.20;;;11.20;99.90;;;;;;5032442;28;20452;-74
2022/03/26 00:25:52;;;;;;;1.57;1.47;;;11.20;99.90;;;;;;5031909;28;20976;-71
2022/03/26 00:28:20;;;;;;;0.73;0.50;;;11.20;99.90;;;;;;5030475;28;20448;-74
2022/03/26 00:30:49;;;;;;;0.60;0.30;;;11.20;99.90;;;;;;5032140;28;20467;-70
2022/03/26 00:33:17;;;;;;;6.53;5.00;;;12.20;99.90;;;;;;5031908;28;20452;-72
2022/03/26 00:35:46;;;;;;;3.80;1.13;;;11.20;99.90;;;;;;5031851;28;20988;-71
2022/03/26 00:38:15;;;;;;;7.40;4.03;;;11.10;99.90;;;;;;5031616;28;20486;-73
2022/03/26 00:40:43;;;;;;;3.63;2.67;;;11.10;99.90;;;;;;5032627;28;20447;-71
2022/03/26 00:43:11;;;;;;;1.10;0.93;;;11.10;99.90;;;;;;5031921;28;21374;-71
2022/03/26 00:45:39;;;;;;;5.23;4.70;;;11.10;99.90;;;;;;5032000;28;20455;-72
2022/03/26 00:48:07;;;;;;;0.70;0.50;;;11.10;99.90;;;;;;5031949;28;20949;-72
2022/03/26 00:50:35;;;;;;;2.93;1.73;;;11.00;99.90;;;;;;5031749;28;20499;-71
2022/03/26 00:53:03;;;;;;;12.53;8.07;;;10.90;99.90;;;;;;5030069;28;20466;-71
2022/03/26 00:55:34;;;;;;;3.80;3.50;;;10.90;99.90;;;;;;5031796;28;20457;-71
2022/03/26 00:58:02;;;;;;;3.90;2.27;;;10.90;99.90;;;;;;5029751;28;20486;-72
2022/03/26 01:00:29;;;;;;;4.60;3.57;;;10.80;99.90;;;;;;5024744;28;20444;-70
2022/03/26 01:02:58;;;;;;;4.27;3.47;;;10.70;99.90;;;;;;5032024;28;20458;-71
2022/03/26 01:05:26;;;;;;;0.93;0.77;;;10.80;99.90;;;;;;5031982;28;20537;-72
2022/03/26 01:07:54;;;;;;;2.47;2.27;;;10.70;99.90;;;;;;5030937;28;20470;-70
2022/03/26 01:10:22;;;;;;;0.70;0.57;;;10.70;99.90;;;;;;5031436;28;20481;-70
2022/03/26 01:12:52;;;;;;;1.17;1.07;;;10.70;99.90;;;;;;5031435;28;20462;-70
2022/03/26 01:15:21;;;;;;;1.83;0.63;;;10.70;99.90;;;;;;5030794;28;20449;-70
2022/03/26 01:17:50;;;;;;;19.40;2.20;;;10.70;99.90;;;;;;5030240;28;20578;-70
2022/03/26 01:20:18;;;;;;;5.07;4.20;;;10.70;99.90;;;;;;5031749;28;20454;-70
2022/03/26 01:22:46;;;;;;;0.60;0.30;;;10.60;99.90;;;;;;5031470;28;20478;-71
2022/03/26 01:25:14;;;;;;;0.60;0.20;;;10.60;99.90;;;;;;5031154;28;20443;-70
2022/03/26 01:27:42;;;;;;;5.53;1.90;;;10.60;99.90;;;;;;5035969;28;20449;-71
2022/03/26 01:30:13;;;;;;;3.03;2.83;;;10.50;99.90;;;;;;5034249;28;20438;-71
2022/03/26 01:32:43;;;;;;;8.33;4.43;;;;;;;;;;5050846;28;20831;-70
2022/03/26 01:35:12;;;;;;;2.40;2.30;;;10.50;99.90;;;;;;5051078;28;20788;-70
2022/03/26 01:37:40;;;;;;;1.27;1.17;;;10.50;99.90;;;;;;5050811;28;20976;-72
2022/03/26 01:40:09;;;;;;;0.60;0.10;;;10.50;99.90;;;;;;5051348;28;20442;-70
2022/03/26 01:42:37;;;;;;;5.37;3.37;;;10.40;99.90;;;;;;5046692;28;20482;-71
2022/03/26 01:45:06;;;;;;;0.80;0.67;;;10.40;99.90;;;;;;5030429;28;20755;-71
2022/03/26 01:47:35;;;;;;;1.33;1.23;;;10.40;99.90;;;;;;5030788;28;20458;-71
2022/03/26 01:50:04;;;;;;;1.70;1.60;;;10.40;99.90;;;;;;5031763;28;20444;-71
2022/03/26 01:52:32;;;;;;;6.53;2.77;;;10.40;99.90;;;;;;5031001;28;20485;-71
2022/03/26 01:55:01;;;;;;;1.77;1.10;;;10.40;99.90;;;;;;5030402;28;20805;-71
2022/03/26 01:57:30;;;;;;;0.60;0.10;;;10.40;99.90;;;;;;5028829;28;20984;-71
2022/03/26 01:59:59;;;;;;;0.97;0.67;;;10.40;99.90;;;;;;5029186;28;20454;-71
2022/03/26 02:02:26;;;;;;;3.83;3.37;;;10.40;99.90;;;;;;5030063;28;20830;-72
2022/03/26 02:04:57;;;;;;;2.20;1.50;;;10.40;99.90;;;;;;5030909;28;20454;-71
2022/03/26 02:07:26;;;;;;;1.80;1.70;;;10.40;99.90;;;;;;5030814;28;20442;-70
2022/03/26 02:09:54;;;;;;;5.87;5.37;;;10.40;99.90;;;;;;5030341;28;20447;-70
2022/03/26 02:12:24;;;;;;;1.60;1.50;;;10.30;99.90;;;;;;5031026;28;20550;-70
2022/03/26 02:14:52;;;;;;;0.80;0.47;;;10.30;99.90;;;;;;5031037;28;20625;-71
2022/03/26 02:17:20;;;;;;;1.70;1.60;;;10.30;99.90;;;;;;5030900;28;20483;-71
2022/03/26 02:19:51;;;;;;;1.70;1.60;;;10.30;99.90;;;;;;5032639;28;20809;-71
2022/03/26 02:22:20;;;;;;;0.63;0.27;;;10.30;99.90;;;;;;5034443;28;20459;-70
2022/03/26 02:24:48;;;;;;;1.90;1.80;;;10.30;99.90;;;;;;5032528;28;20451;-70
2022/03/26 02:27:20;;;;;;;0.60;0.30;;;10.30;99.90;;;;;;5031206;28;20535;-71
2022/03/26 02:29:49;;;;;;;1.70;1.60;;;;;;;;;;5031017;28;20478;-70
2022/03/26 02:32:19;;;;;;;4.57;2.20;;;10.30;99.90;;;;;;5031111;28;20474;-71
2022/03/26 02:34:48;;;;;;;1.17;0.63;;;10.20;99.90;;;;;;5030529;28;20444;-71
2022/03/26 02:37:30;;;;;;;0.70;0.47;;;10.20;99.90;;;;;;5030327;28;20510;-71
2022/03/26 02:39:58;;;;;;;0.60;0.20;;;10.10;99.90;;;;;;5031048;28;20461;-72
2022/03/26 02:42:27;;;;;;;4.17;2.17;;;;;;;;;;5030974;28;20467;-71
2022/03/26 02:44:55;;;;;;;2.37;1.47;;;10.10;99.90;;;;;;5030677;28;20455;-71
2022/03/26 02:47:23;;;;;;;4.53;2.60;;;10.10;99.90;;;;;;5030925;28;20809;-70
2022/03/26 02:49:51;;;;;;;9.07;2.40;;;10.00;99.90;;;;;;5030812;28;20534;-70
2022/03/26 02:52:22;;;;;;;0.60;0.30;;;10.00;99.90;;;;;;5031054;28;20478;-70
2022/03/26 02:54:51;;;;;;;0.90;0.60;;;10.00;99.90;;;;;;5030992;28;20802;-72
2022/03/26 02:57:19;;;;;;;1.10;0.87;;;10.00;99.90;;;;;;5033028;28;20533;-70
2022/03/26 02:59:47;;;;;;;1.70;1.60;;;10.00;99.90;;;;;;5034038;28;20451;-71
2022/03/26 03:02:15;;;;;;;2.17;2.07;;;10.00;99.90;;;;;;5034144;28;20993;-69
2022/03/26 03:04:44;;;;;;;2.97;1.80;;;;;;;;;;5014898;28;20440;-71
2022/03/26 03:07:12;;;;;;;3.93;3.63;;;9.90;99.90;;;;;;5034082;28;20447;-71
2022/03/26 03:09:39;;;;;;;3.83;2.10;;;9.90;99.90;;;;;;5033701;28;20497;-71
2022/03/26 03:12:10;;;;;;;1.77;1.43;;;9.90;99.90;;;;;;5034239;28;20462;-70
2022/03/26 03:14:38;;;;;;;30.77;4.47;;;9.80;99.90;;;;;;5033807;28;20475;-71
2022/03/26 03:17:06;;;;;;;0.60;0.20;;;9.80;99.90;;;;;;5033789;28;20448;-72
2022/03/26 03:19:34;;;;;;;12.00;3.03;;;9.80;99.90;;;;;;5033459;28;20486;-71
2022/03/26 03:22:02;;;;;;;5.47;5.13;;;9.70;99.90;;;;;;5033700;28;20471;-71
2022/03/26 03:24:30;;;;;;;3.60;3.30;;;9.70;99.90;;;;;;5033550;28;20562;-72
2022/03/26 03:26:58;;;;;;;0.70;0.40;;;9.70;99.90;;;;;;5033143;28;20980;-71
2022/03/26 03:29:27;;;;;;;0.80;0.57;;;9.70;99.90;;;;;;5033227;28;20443;-71
2022/03/26 03:31:55;;;;;;;7.40;2.20;;;9.60;99.90;;;;;;5059142;23;20498;-78
2022/03/26 03:34:23;;;;;;;24.00;3.73;;;9.60;99.90;;;;;;5064412;28;20940;-79
2022/03/26 03:36:51;;;;;;;0.70;0.63;;;9.60;99.90;;;;;;5066017;28;20880;-79
2022/03/26 03:39:19;;;;;;;4.40;3.57;;;9.50;99.90;;;;;;5061001;28;20555;-78
2022/03/26 03:41:47;;;;;;;0.60;0.30;;;9.50;99.90;;;;;;5079812;28;20473;-78
2022/03/26 03:44:16;;;;;;;1.83;1.50;;;9.50;99.90;;;;;;5081927;28;20442;-78
2022/03/26 03:46:45;;;;;;;1.80;1.70;;;9.40;99.90;;;;;;5083574;28;20456;-79
2022/03/26 03:49:13;;;;;;;4.33;3.20;;;;;;;;;;5086660;28;20449;-79
2022/03/26 03:51:42;;;;;;;1.90;1.80;;;9.10;99.90;;;;;;5082711;28;20579;-79
2022/03/26 03:54:10;;;;;;;1.43;0.93;;;9.10;99.90;;;;;;5080466;28;20468;-77
2022/03/26 03:56:37;;;;;;;2.53;2.10;;;9.10;99.90;;;;;;5078405;28;20454;-79
2022/03/26 03:59:06;;;;;;;1.07;0.93;;;9.00;99.90;;;;;;5082966;28;20484;-78
2022/03/26 04:01:33;;;;;;;3.47;1.03;;;8.90;99.90;;;;;;5079531;28;20546;-79
2022/03/26 04:04:04;;;;;;;4.17;2.60;;;8.90;99.90;;;;;;5083388;28;20474;-77
2022/03/26 04:06:32;;;;;;;0.60;0.20;;;10.40;99.90;;;;;;5087070;28;20452;-79
2022/03/26 04:08:59;;;;;;;3.10;2.53;;;8.90;99.90;;;;;;5082181;28;20448;-79
2022/03/26 04:11:27;;;;;;;11.77;11.27;;;8.90;99.90;;;;;;5083715;28;20906;-78
2022/03/26 04:13:56;;;;;;;3.60;2.53;;;8.90;99.90;;;;;;5091689;28;20568;-77
2022/03/26 04:16:25;;;;;;;2.90;1.30;;;8.80;99.90;;;;;;5092800;28;20480;-79
2022/03/26 04:18:53;;;;;;;3.70;2.67;;;8.80;99.90;;;;;;5087482;28;20472;-79
2022/03/26 04:21:22;;;;;;;9.50;6.13;;;8.70;99.90;;;;;;5086438;28;20468;-79
2022/03/26 04:23:50;;;;;;;3.83;3.43;;;8.70;99.90;;;;;;5085829;28;20456;-79
2022/03/26 04:26:18;;;;;;;0.80;0.53;;;8.70;99.90;;;;;;5085173;28;20451;-79
2022/03/26 04:28:47;;;;;;;2.33;2.23;;;8.70;99.90;;;;;;5082971;28;20446;-77
2022/03/26 04:31:15;;;;;;;0.80;0.73;;;8.70;99.90;;;;;;5088715;28;20484;-79
2022/03/26 04:33:43;;;;;;;0.83;0.50;;;8.70;99.90;;;;;;5092530;28;20504;-78
2022/03/26 04:36:10;;;;;;;3.17;1.03;;;8.80;99.90;;;;;;5090560;28;20448;-77
2022/03/26 04:38:40;;;;;;;8.53;2.20;;;8.70;99.90;;;;;;5089413;28;20507;-79
2022/03/26 04:41:09;;;;;;;2.07;1.97;;;9.50;99.90;;;;;;5084479;28;20540;-77
2022/03/26 04:43:37;;;;;;;8.63;8.20;;;8.60;99.90;;;;;;5085732;28;20421;-79
2022/03/26 04:46:05;;;;;;;0.60;0.40;;;8.60;99.90;;;;;;5087811;28;20462;-79
2022/03/26 04:48:33;;;;;;;0.70;0.40;;;8.60;99.90;;;;;;5086988;28;20936;-79
2022/03/26 04:51:01;;;;;;;6.07;5.60;;;8.60;99.90;;;;;;5088359;28;20449;-77
2022/03/26 04:53:29;;;;;;;0.60;0.10;;;8.60;99.90;;;;;;5083457;28;20555;-79
2022/03/26 04:55:58;;;;;;;4.90;4.53;;;8.60;99.90;;;;;;5083921;28;20445;-78
2022/03/26 04:58:26;;;;;;;0.60;0.10;;;8.50;99.90;;;;;;5084344;28;20449;-78
2022/03/26 05:00:53;;;;;;;0.60;0.37;;;8.50;99.90;;;;;;5090675;28;20449;-77
2022/03/26 05:03:21;;;;;;;0.70;0.57;;;8.50;99.90;;;;;;5092831;28;20436;-77
2022/03/26 05:05:49;;;;;;;0.60;0.10;;;8.60;99.90;;;;;;5090701;28;20448;-79
2022/03/26 05:08:17;;;;;;;6.90;6.50;;;8.60;99.90;;;;;;5084609;28;20451;-78
2022/03/26 05:10:45;;;;;;;4.93;2.53;;;8.60;99.90;;;;;;5081879;28;20819;-78
2022/03/26 05:13:15;;;;;;;0.60;0.10;;;8.60;99.90;;;;;;5083887;28;20441;-78
2022/03/26 05:15:43;;;;;;;0.60;0.10;;;8.60;99.90;;;;;;5092223;28;20472;-78
2022/03/26 05:18:13;;;;;;;0.60;0.10;;;8.60;99.90;;;;;;5090750;28;20453;-76
2022/03/26 05:20:41;;;;;;;4.67;3.30;;;8.70;99.90;;;;;;5086910;28;20539;-77
2022/03/26 05:23:09;;;;;;;10.33;4.17;;;8.70;99.90;;;;;;5083259;28;20444;-78
2022/03/26 05:25:37;;;;;;;0.60;0.20;;;8.70;99.90;;;;;;5078895;28;20468;-79
2022/03/26 05:28:06;;;;;;;0.60;0.10;;;8.70;99.90;;;;;;5081665;28;20445;-78
2022/03/26 05:30:35;;;;;;;3.20;2.47;;;8.80;99.90;;;;;;5084050;28;20463;-78
2022/03/26 05:33:03;;;;;;;1.00;0.90;;;8.70;99.90;;;;;;5078464;28;20510;-79
2022/03/26 05:35:31;;;;;;;4.20;3.80;;;8.70;99.90;;;;;;5085173;28;20941;-79
2022/03/26 05:37:59;;;;;;;4.93;2.30;;;8.60;99.90;;;;;;5091868;28;20477;-79
2022/03/26 05:40:27;;;;;;;0.70;0.40;;;8.50;99.90;;;;;;5085019;28;20477;-78
2022/03/26 05:42:55;;;;;;;3.60;3.10;;;8.50;99.90;;;;;;5086225;28;20487;-79
2022/03/26 05:45:23;;;;;;;0.70;0.47;;;;;;;;;;5082825;28;20559;-78
2022/03/26 05:47:59;;;;;;;1.70;1.23;;;8.50;99.90;;;;;;5079483;28;20883;-79
2022/03/26 05:50:27;;;;;;;4.10;3.10;;;8.60;99.90;;;;;;5081239;28;20507;-80
2022/03/26 05:52:55;;;;;;;0.70;0.60;;;8.60;99.90;;;;;;5076844;28;20943;-80
2022/03/26 05:55:23;;;;;;;1.67;1.57;;;8.60;99.90;;;;;;5079567;28;20493;-79
2022/03/26 05:57:51;;;;;;;2.40;2.20;;;8.60;99.90;;;;;;5077608;28;20841;-79
2022/03/26 06:00:19;;;;;;;13.97;13.37;;;8.60;99.90;;;;;;5083375;28;20481;-79
2022/03/26 06:02:47;;;;;;;3.30;3.10;;;8.60;99.90;;;;;;5082877;28;20484;-79
2022/03/26 06:05:17;;;;;;;3.90;3.70;;;8.70;99.90;;;;;;5083186;28;20449;-79
2022/03/26 06:07:45;;;;;;;0.60;0.20;;;8.70;99.90;;;;;;5078146;28;20505;-77
2022/03/26 06:10:13;;;;;;;0.80;0.37;;;9.10;99.90;;;;;;5081699;28;20540;-77
2022/03/26 06:12:45;;;;;;;1.73;1.50;;;8.80;99.90;;;;;;5079595;28;20526;-79
2022/03/26 06:15:13;;;;;;;7.40;5.90;;;8.90;99.90;;;;;;5078295;28;20456;-79
2022/03/26 06:18:02;;;;;;;1.93;1.20;;;8.90;99.90;;;;;;5077239;28;20444;-79
2022/03/26 06:20:31;;;;;;;2.53;1.50;;;9.00;99.90;;;;;;5079749;28;20954;-79
2022/03/26 06:22:59;;;;;;;0.83;0.80;;;9.00;99.90;;;;;;5080033;28;20519;-79
2022/03/26 06:25:31;;;;;;;6.43;3.10;;;9.00;99.90;;;;;;5083706;28;20432;-78
2022/03/26 06:27:59;;;;;;;5.70;1.80;;;9.10;99.90;;;;;;5068883;28;20490;-78
2022/03/26 06:30:27;;;;;;;2.87;2.67;;;9.10;99.90;;;;;;5080236;28;20537;-80
2022/03/26 06:32:55;;;;;;;0.60;0.10;;;9.10;99.90;;;;;;5074731;28;20571;-81
2022/03/26 06:35:24;;;;;;;1.17;1.07;;;9.20;99.90;;;;;;5087893;28;20473;-81
2022/03/26 06:37:54;;;;;;;0.97;0.87;;;9.20;99.90;;;;;;5087597;28;20784;-79
2022/03/26 06:40:22;;;;;;;4.77;3.40;;;;;;;;;;5085630;28;20461;-77
2022/03/26 06:42:50;;;;;;;2.10;1.10;;;9.30;99.90;;;;;;5090540;28;20488;-80
2022/03/26 06:45:18;;;;;;;1.87;1.03;;;9.30;99.90;;;;;;5096788;28;20472;-80
2022/03/26 06:47:47;;;;;;;1.07;0.97;;;11.00;99.90;;;;;;5090811;28;20463;-80
2022/03/26 06:50:15;;;;;;;1.07;0.97;;;9.40;99.90;;;;;;5085060;28;20449;-78
2022/03/26 06:52:42;;;;;;;2.83;2.43;;;9.50;99.90;;;;;;5086039;28;20468;-79
2022/03/26 06:55:12;;;;;;;9.27;8.17;;;9.50;99.90;;;;;;5085509;28;20441;-78
2022/03/26 06:57:41;;;;;;;19.17;3.03;;;9.50;99.90;;;;;;5084147;28;20444;-79
2022/03/26 07:00:11;;;;;;;1.60;1.50;;;9.50;99.90;;;;;;5086436;28;20504;-79
2022/03/26 07:02:39;;;;;;;1.90;1.53;;;9.50;99.90;;;;;;5088213;28;20465;-80
2022/03/26 07:05:09;;;;;;;2.47;2.30;;;9.60;99.90;;;;;;5090320;28;20540;-78
2022/03/26 07:07:37;;;;;;;2.20;2.03;;;9.70;99.90;;;;;;5092817;28;20543;-81
2022/03/26 07:10:06;;;;;;;4.07;3.70;;;9.80;99.90;;;;;;5093582;28;20512;-80
2022/03/26 07:12:36;;;;;;;6.80;6.23;;;9.80;99.90;;;;;;5087514;28;20493;-79
2022/03/26 07:15:05;;;;;;;5.50;4.80;;;9.90;99.90;;;;;;5086867;28;20485;-78
2022/03/26 07:17:37;;;;;;;1.63;0.73;;;;;;;;;;5086652;28;20451;-79
2022/03/26 07:20:05;;;;;;;4.73;1.70;;;;;;;;;;5087699;28;20473;-80
2022/03/26 07:22:34;;;;;;;2.17;1.97;;;10.00;99.90;;;;;;5088276;28;20499;-79
2022/03/26 07:25:04;;;;;;;2.30;2.10;;;10.00;99.90;;;;;;5088905;28;20446;-79
2022/03/26 07:27:32;;;;;;;0.60;0.10;;;10.10;99.90;;;;;;5091107;28;20473;-80
2022/03/26 07:30:02;;;;;;;0.70;0.53;;;10.20;99.90;;;;;;5091849;28;20460;-80
2022/03/26 07:32:30;;;;;;;1.20;1.10;;;10.30;99.90;;;;;;5092003;28;20473;-80
2022/03/26 07:34:58;;;;;;;1.13;0.97;;;10.40;99.90;;;;;;5086643;28;20449;-79
2022/03/26 07:37:26;;;;;;;0.60;0.40;;;10.50;99.90;;;;;;5084723;28;20492;-79
2022/03/26 07:39:54;;;;;;;0.60;0.10;;;10.50;99.90;;;;;;5083374;28;20445;-80
2022/03/26 07:42:22;;;;;;;0.60;0.10;;;10.60;99.90;;;;;;5078755;28;20833;-79
2022/03/26 07:44:50;;;;;;;3.40;3.30;;;10.60;99.90;;;;;;5077053;28;20458;-79
2022/03/26 07:47:19;;;;;;;0.70;0.60;;;;;;;;;;5083716;28;20442;-79
2022/03/26 07:49:47;;;;;;;0.60;0.10;;;10.70;99.90;;;;;;5086691;28;20453;-80
2022/03/26 07:52:16;;;;;;;2.40;2.30;;;10.80;99.90;;;;;;5086044;28;20493;-81
2022/03/26 07:54:44;;;;;;;4.30;4.10;;;10.80;99.90;;;;;;5078350;28;20775;-78
2022/03/26 07:57:11;;;;;;;0.60;0.20;;;10.80;99.90;;;;;;5084199;28;20944;-79
2022/03/26 07:59:39;;;;;;;1.13;0.83;;;11.00;99.90;;;;;;5084537;28;20453;-80
2022/03/26 08:02:07;;;;;;;1.53;1.40;;;11.00;99.90;;;;;;5081465;28;20484;-81
2022/03/26 08:04:37;;;;;;;4.30;2.43;;;11.00;99.90;;;;;;5084807;28;20480;-78
2022/03/26 08:07:07;;;;;;;2.03;1.03;;;11.10;99.90;;;;;;5088489;28;20441;-80
2022/03/26 08:09:36;;;;;;;0.60;0.20;;;11.10;99.90;;;;;;5087791;28;20491;-81
2022/03/26 08:12:05;;;;;;;5.83;3.07;;;11.30;99.90;;;;;;5092660;28;20457;-80
2022/03/26 08:14:34;;;;;;;1.27;0.87;;;11.30;99.90;;;;;;5091697;28;20446;-79
2022/03/26 08:17:02;;;;;;;0.83;0.70;;;11.30;99.90;;;;;;5091310;28;20436;-79
2022/03/26 08:19:34;;;;;;;2.60;2.00;;;11.40;99.90;;;;;;5089696;28;20445;-81
2022/03/26 08:22:23;;;;;;;1.67;1.13;;;11.50;99.90;;;;;;5091447;28;20481;-82
2022/03/26 08:24:51;;;;;;;0.70;0.37;;;11.50;99.90;;;;;;5079291;28;20457;-79
2022/03/26 08:27:19;;;;;;;2.77;2.63;;;11.60;99.90;;;;;;5076781;28;20446;-79
2022/03/26 08:29:48;;;;;;;0.60;0.10;;;11.70;99.90;;;;;;5091313;28;20453;-80
2022/03/26 08:32:16;;;;;;;0.60;0.10;;;11.80;99.90;;;;;;5087436;28;20465;-79
2022/03/26 08:34:45;;;;;;;0.60;0.30;;;11.90;99.90;;;;;;5081945;28;20450;-80
2022/03/26 08:37:14;;;;;;;2.67;2.30;;;12.00;99.90;;;;;;5075090;28;20472;-80
2022/03/26 08:39:42;;;;;;;0.60;0.10;;;12.20;99.90;;;;;;5080477;28;20450;-80
2022/03/26 08:42:12;;;;;;;2.33;2.13;;;12.30;99.90;;;;;;5088206;28;20477;-79
2022/03/26 08:44:40;;;;;;;0.60;0.10;;;12.30;99.90;;;;;;5088706;28;20472;-79
2022/03/26 08:47:11;;;;;;;0.60;0.10;;;12.50;99.90;;;;;;5074540;28;20443;-82
2022/03/26 08:49:40;;;;;;;0.80;0.70;;;12.60;99.90;;;;;;5071004;28;20447;-80
2022/03/26 08:52:08;;;;;;;3.17;2.97;;;12.80;99.90;;;;;;5088024;28;20493;-80
2022/03/26 08:54:37;;;;;;;2.67;2.33;;;12.80;99.90;;;;;;5077096;28;20476;-81
2022/03/26 08:57:05;;;;;;;1.77;1.53;;;13.00;99.90;;;;;;5088825;28;20480;-79
2022/03/26 08:59:33;;;;;;;0.77;0.70;;;13.00;99.90;;;;;;5089239;28;20453;-80
2022/03/26 09:02:01;;;;;;;2.20;1.67;;;13.20;99.90;;;;;;5087519;28;20482;-80
2022/03/26 09:04:29;;;;;;;4.43;4.00;;;13.20;99.90;;;;;;5084852;28;20447;-79
2022/03/26 09:06:58;;;;;;;0.60;0.10;;;13.20;99.90;;;;;;5091980;28;20523;-80
2022/03/26 09:09:27;;;;;;;2.60;2.40;;;13.10;99.90;;;;;;5092828;28;20434;-81
2022/03/26 09:11:57;;;;;;;2.60;0.80;;;13.20;99.90;;;;;;5091736;28;20457;-80
2022/03/26 09:14:25;;;;;;;0.60;0.10;;;13.20;99.90;;;;;;5085367;28;20493;-80
2022/03/26 09:16:53;;;;;;;5.93;5.50;;;13.30;99.90;;;;;;5081043;28;20502;-80
2022/03/26 09:19:21;;;;;;;0.60;0.10;;;13.30;99.90;;;;;;5074946;28;20520;-80
2022/03/26 09:21:49;;;;;;;0.60;0.10;;;13.40;99.90;;;;;;5074002;28;20510;-80
2022/03/26 09:24:17;;;;;;;26.50;11.30;;;13.40;99.90;;;;;;5067466;28;20443;-79
2022/03/26 09:26:45;;;;;;;0.60;0.10;;;13.50;99.90;;;;;;5073727;28;20447;-79
2022/03/26 09:29:15;;;;;;;18.13;17.07;;;13.60;99.90;;;;;;5079399;28;20454;-81
2022/03/26 09:34:17;;;;;;;0.60;0.10;;;13.80;99.90;;;;;;5007530;28;20579;-75
2022/03/26 09:36:45;;;;;;;0.60;0.20;;;14.00;99.90;;;;;;5008882;28;20443;-75
2022/03/26 09:39:13;;;;;;;6.83;4.93;;;14.00;99.90;;;;;;5003213;28;20449;-75
2022/03/26 09:41:41;;;;;;;0.73;0.30;;;14.10;99.90;;;;;;4993349;28;21085;-74
2022/03/26 09:44:12;;;;;;;2.77;2.57;;;14.20;99.90;;;;;;4973699;28;20454;-74
2022/03/26 09:46:41;;;;;;;31.70;15.00;;;14.20;99.90;;;;;;4974657;28;20449;-75
2022/03/26 09:49:10;;;;;;;2.70;1.23;;;14.30;99.90;;;;;;4975323;28;20454;-73
2022/03/26 09:51:38;;;;;;;6.33;1.93;;;14.40;99.90;;;;;;4974217;28;20865;-74
2022/03/26 09:54:07;;;;;;;0.60;0.30;;;;;;;;;;4974301;28;20470;-76
2022/03/26 09:56:35;;;;;;;0.60;0.30;;;14.60;99.90;;;;;;4978897;28;20472;-75
2022/03/26 09:59:03;;;;;;;3.17;1.80;;;14.60;99.90;;;;;;4974616;28;20964;-73
2022/03/26 10:01:31;;;;;;;0.60;0.10;;;14.70;99.90;;;;;;4975294;28;20482;-76
2022/03/26 10:04:11;;;;;;;1.50;1.40;;;14.80;99.90;;;;;;4974386;28;20470;-76
2022/03/26 10:06:48;;;;;;;0.60;0.10;;;14.90;99.90;;;;;;4978135;28;20457;-74
2022/03/26 10:09:26;;;;;;;0.60;0.10;;;15.00;99.90;;;;;;4979230;28;20548;-76
2022/03/26 10:12:02;;;;;;;0.60;0.40;;;15.20;99.90;;;;;;4978918;28;20443;-73
2022/03/26 10:14:41;;;;;;;0.60;0.17;;;15.30;99.90;;;;;;4979043;28;20446;-76
2022/03/26 10:17:20;;;;;;;0.60;0.20;;;15.30;99.90;;;;;;4977559;28;20508;-76
2022/03/26 10:19:51;;;;;;;0.60;0.10;;;15.30;99.90;;;;;;4981986;28;20538;-74
2022/03/26 10:22:27;;;;;;;3.13;1.03;;;15.50;99.90;;;;;;4983540;28;20564;-76
2022/03/26 10:24:56;;;;;;;4.57;4.10;;;15.60;99.90;;;;;;4976059;28;20449;-75
2022/03/26 10:27:24;;;;;;;3.53;3.23;;;15.70;99.90;;;;;;4976515;28;20456;-76
2022/03/26 10:29:54;;;;;;;0.93;0.77;;;15.70;99.90;;;;;;4977458;28;20448;-73
2022/03/26 10:32:41;;;;;;;37.00;10.80;;;15.80;99.90;;;;;;4958415;28;20469;-73
2022/03/26 10:35:25;;;;;;;7.80;6.80;;;15.90;99.90;;;;;;4958590;28;20820;-75
2022/03/26 10:37:59;;;;;;;1.10;1.10;;;16.00;99.90;;;;;;4975778;28;20557;-75
2022/03/26 10:40:30;;;;;;;0.60;0.10;;;16.10;99.90;;;;;;4978155;28;20465;-76
2022/03/26 10:43:06;;;;;;;4.47;4.07;;;16.20;99.90;;;;;;4976794;28;20566;-75
2022/03/26 10:45:37;;;;;;;9.40;3.80;;;16.20;99.90;;;;;;4961803;28;20450;-75
2022/03/26 10:48:09;;;;;;;0.60;0.20;;;16.20;99.90;;;;;;4976491;28;20628;-76
2022/03/26 10:50:39;;;;;;;3.37;0.97;;;16.10;99.90;;;;;;4976617;28;20457;-77
2022/03/26 10:53:10;;;;;;;1.20;0.97;;;16.20;99.90;;;;;;4973047;28;20501;-75
2022/03/26 10:55:40;;;;;;;2.93;2.60;;;16.20;99.90;;;;;;4977375;28;20959;-76
2022/03/26 10:58:09;;;;;;;2.30;0.97;;;16.40;99.90;;;;;;4977436;28;20468;-75
2022/03/26 11:00:37;;;;;;;0.70;0.20;;;16.30;99.90;;;;;;4993897;28;20445;-74
2022/03/26 11:03:06;;;;;;;4.20;3.93;;;16.50;99.90;;;;;;4988303;28;20489;-77
2022/03/26 11:05:35;;;;;;;2.30;1.90;;;16.50;99.90;;;;;;4991761;28;20874;-75
2022/03/26 11:08:06;;;;;;;0.60;0.10;;;16.50;99.90;;;;;;4978449;28;20443;-74
2022/03/26 11:10:34;;;;;;;0.90;0.60;;;16.60;99.90;;;;;;4978335;28;20468;-75
2022/03/26 11:13:03;;;;;;;1.80;1.70;;;16.70;99.90;;;;;;4982656;28;20460;-75
2022/03/26 11:15:35;;;;;;;1.13;1.03;;;16.70;99.90;;;;;;4986992;28;20454;-76
2022/03/26 11:18:18;;;;;;;5.50;2.10;;;16.80;99.90;;;;;;4979457;28;20463;-74
2022/03/26 11:21:07;;;;;;;0.90;0.53;;;16.80;99.90;;;;;;4979319;28;20450;-76
2022/03/26 11:23:52;;;;;;;8.47;6.07;;;16.80;99.90;;;;;;4980095;28;20599;-76
2022/03/26 11:26:33;;;;;;;0.93;0.83;;;16.80;99.90;;;;;;4977058;28;20488;-76
2022/03/26 11:29:17;;;;;;;0.60;0.10;;;16.90;99.90;;;;;;4976076;28;20953;-73
2022/03/26 11:31:50;;;;;;;65.27;59.17;;;17.10;99.90;;;;;;4976390;28;20461;-75
2022/03/26 11:34:19;;;;;;;2.00;1.90;;;17.10;99.90;;;;;;4975750;28;20486;-75
2022/03/26 11:36:50;;;;;;;4.10;2.90;;;17.20;99.90;;;;;;4977083;28;20465;-75
2022/03/26 11:39:21;;;;;;;15.97;11.97;;;17.40;99.90;;;;;;4971496;28;20574;-73
2022/03/26 11:41:49;;;;;;;1.67;1.57;;;17.90;99.90;;;;;;4975375;28;20455;-74
2022/03/26 11:44:18;;;;;;;0.60;0.20;;;17.50;99.90;;;;;;4977343;28;20445;-73
2022/03/26 11:52:24;;;;;;;3.63;0.90;;;17.70;99.90;;;;;;4986668;28;20987;-77
2022/03/26 11:55:00;;;;;;;2.03;1.80;;;17.70;99.90;;;;;;4980823;28;20492;-76
2022/03/26 11:57:29;;;;;;;0.60;0.20;;;17.60;99.90;;;;;;4983749;28;20456;-74
2022/03/26 12:00:00;;;;;;;0.80;0.50;;;17.60;99.90;;;;;;4979594;28;20443;-75
2022/03/26 12:02:29;;;;;;;0.70;0.40;;;17.70;99.90;;;;;;4975753;28;20518;-75
2022/03/26 12:04:59;;;;;;;0.60;0.10;;;17.10;99.90;;;;;;4976351;28;20981;-74
2022/03/26 12:07:28;;;;;;;0.60;0.20;;;17.80;99.90;;;;;;4976389;28;21028;-75
2022/03/26 12:10:10;;;;;;;0.60;0.10;;;17.80;99.90;;;;;;4977324;28;21013;-76
2022/03/26 12:12:48;;;;;;;1.10;0.97;;;18.00;99.90;;;;;;4984259;28;20559;-75
2022/03/26 12:15:25;;;;;;;5.67;3.27;;;;;;;;;;4975959;28;21114;-74
2022/03/26 12:17:56;;;;;;;0.60;0.30;;;18.10;99.90;;;;;;4977250;28;20460;-77
2022/03/26 12:20:26;;;;;;;1.30;1.20;;;18.00;99.90;;;;;;4977274;28;20532;-74
2022/03/26 12:23:07;;;;;;;0.60;0.20;;;18.00;99.90;;;;;;4991507;28;20561;-75
2022/03/26 12:25:46;;;;;;;0.60;0.13;;;18.00;99.90;;;;;;4985657;28;20458;-74
2022/03/26 12:28:17;;;;;;;0.60;0.10;;;18.00;99.90;;;;;;4979823;28;20508;-77
2022/03/26 12:30:51;;;;;;;0.60;0.10;;;18.20;99.90;;;;;;4983362;28;20453;-77
2022/03/26 12:33:20;;;;;;;0.60;0.20;;;18.30;99.90;;;;;;4987890;28;20487;-77
2022/03/26 12:35:50;;;;;;;0.60;0.10;;;18.40;99.90;;;;;;4981352;28;20449;-78
2022/03/26 12:38:19;;;;;;;4.77;2.80;;;18.40;99.90;;;;;;4979324;28;20466;-77
2022/03/26 12:40:55;;;;;;;9.93;1.57;;;18.50;99.90;;;;;;4983933;28;20504;-77
2022/03/26 12:43:24;;;;;;;1.17;1.07;;;18.40;99.90;;;;;;4986313;28;20517;-77
2022/03/26 12:45:54;;;;;;;1.13;0.93;;;18.40;99.90;;;;;;4979075;28;20456;-76
2022/03/26 12:48:26;;;;;;;0.70;0.33;;;18.50;99.90;;;;;;4978457;28;20537;-77
2022/03/26 12:50:54;;;;;;;0.60;0.30;;;18.50;99.90;;;;;;4980249;28;20444;-77
2022/03/26 12:53:22;;;;;;;0.60;0.10;;;18.50;99.90;;;;;;4980048;28;20473;-78
2022/03/26 12:55:57;;;;;;;0.60;0.10;;;18.60;99.90;;;;;;4987336;28;20455;-78
2022/03/26 13:01:13;;;;;;;0.70;0.50;;;18.70;99.90;;;;;;4982281;28;20535;-77
2022/03/26 13:03:42;;;;;;;0.60;0.20;;;18.80;99.90;;;;;;4975452;28;20584;-77
2022/03/26 13:06:12;;;;;;;0.60;0.30;;;18.90;99.90;;;;;;4975089;28;20948;-76
2022/03/26 13:08:42;;;;;;;4.00;1.90;;;18.90;99.90;;;;;;4977503;28;20450;-78
2022/03/26 13:11:12;;;;;;;0.80;0.67;;;19.00;99.90;;;;;;4977576;28;20824;-79
2022/03/26 13:13:47;;;;;;;1.70;1.60;;;18.80;99.90;;;;;;4979663;28;20498;-76
2022/03/26 13:16:18;;;;;;;1.20;1.10;;;18.70;99.90;;;;;;4984644;28;20453;-78